createdAt,value
2022-08-03T00:02:25.356Z,100593.81
2022-08-03T00:07:27.797Z,100579.38
2022-08-03T00:12:30.230Z,100582.84
2022-08-03T00:17:52.665Z,100578.56
2022-08-03T00:22:56.358Z,100584.84
2022-08-03T00:27:58.889Z,100585.38
2022-08-03T00:33:03.123Z,100579.53
2022-08-03T00:38:06.373Z,100582.22
2022-08-03T00:43:09.418Z,100578.97
2022-08-03T00:48:29.465Z,100577.75
2022-08-03T00:53:37.117Z,100577.94
2022-08-03T00:58:39.652Z,100571.94
2022-08-03T01:03:43.944Z,100573.38
2022-08-03T01:08:52.614Z,100579.47
2022-08-03T01:14:18.921Z,100576.13
2022-08-03T01:19:42.829Z,100571.16
2022-08-03T01:24:57.377Z,100564.47
2022-08-03T01:30:05.815Z,100567.72
2022-08-03T01:35:12.337Z,100564.44
2022-08-03T01:40:17.048Z,100563.94
2022-08-03T01:45:23.313Z,100561.47
2022-08-03T01:50:28.945Z,100569.94
2022-08-03T01:55:33.914Z,100552.75
2022-08-03T02:00:39.473Z,100557.97
2022-08-03T02:05:43.261Z,100547.94
2022-08-03T02:10:47.006Z,100550.78
2022-08-03T02:15:52.886Z,100560.81
2022-08-03T02:20:56.641Z,100561.75
2022-08-03T02:26:03.607Z,100559.75
2022-08-03T02:31:12.919Z,100551.09
2022-08-03T02:36:17.115Z,100559.91
2022-08-03T02:41:24.979Z,100545.22
2022-08-03T02:46:32.991Z,100549.22
2022-08-03T02:51:38.551Z,100548.41
2022-08-03T02:56:42.817Z,100555.31
2022-08-03T03:01:47.145Z,100549.91
2022-08-03T03:06:51.569Z,100543.19
2022-08-03T03:11:55.967Z,100541.13
2022-08-03T03:17:00.710Z,100546.78
2022-08-03T03:22:06.824Z,100539.69
2022-08-03T03:27:09.791Z,100543.44
2022-08-03T03:32:14.761Z,100538.47
2022-08-03T03:37:17.421Z,100547.50
2022-08-03T03:42:20.193Z,100539.22
2022-08-03T03:47:32.294Z,100546.34
2022-08-03T03:52:35.695Z,100534.59
2022-08-03T03:57:38.204Z,100544.50
2022-08-03T04:02:42.269Z,100540.25
2022-08-03T04:08:09.117Z,100544.13
2022-08-03T04:13:13.254Z,100541.16
2022-08-03T04:18:19.671Z,100548.06
2022-08-03T04:23:26.340Z,100550.88
2022-08-03T04:28:31.851Z,100560.66
2022-08-03T04:33:39.546Z,100560.19
2022-08-03T04:38:53.929Z,100561.53
2022-08-03T04:43:57.988Z,100569.97
2022-08-03T04:49:02.604Z,100565.06
2022-08-03T04:54:07.169Z,100569.69
2022-08-03T04:59:10.744Z,100574.88
2022-08-03T05:04:14.837Z,100575.22
2022-08-03T05:09:46.109Z,100580.56
2022-08-03T05:14:40.114Z,100579.50
2022-08-03T05:19:43.964Z,100580.66
2022-08-03T05:24:46.419Z,100582.38
2022-08-03T05:29:50.958Z,100569.13
2022-08-03T05:34:54.761Z,100577.44
2022-08-03T05:39:57.262Z,100576.31
2022-08-03T05:44:59.752Z,100577.00
2022-08-03T05:50:03.712Z,100574.00
2022-08-03T05:55:07.123Z,100579.66
2022-08-03T06:00:11.967Z,100574.91
2022-08-03T06:05:16.724Z,100588.50
2022-08-03T06:10:35.404Z,100586.13
2022-08-03T06:15:41.503Z,100573.78
2022-08-03T06:20:45.384Z,100576.72
2022-08-03T06:25:50.393Z,100575.16
2022-08-03T06:30:52.912Z,100572.28
2022-08-03T06:35:56.727Z,100573.91
2022-08-03T06:40:59.245Z,100573.13
2022-08-03T06:46:01.719Z,100571.03
2022-08-03T06:51:05.690Z,100576.50
2022-08-03T06:56:09.469Z,100570.09
2022-08-03T07:01:12.013Z,100572.88
2022-08-03T07:06:15.897Z,100578.34
2022-08-03T07:11:18.348Z,100575.94
2022-08-03T07:16:21.046Z,100583.88
2022-08-03T07:21:25.126Z,100577.25
2022-08-03T07:26:27.640Z,100568.06
2022-08-03T07:31:34.471Z,100574.66
2022-08-03T07:36:38.491Z,100573.78
2022-08-03T07:41:41.874Z,100573.69
2022-08-03T07:46:44.482Z,100565.56
2022-08-03T07:52:09.058Z,100563.09
2022-08-03T07:57:11.701Z,100565.28
2022-08-03T08:02:14.725Z,100555.16
2022-08-03T08:07:18.772Z,100558.91
2022-08-03T08:12:23.436Z,100565.78
2022-08-03T08:17:25.985Z,100565.38
2022-08-03T08:22:31.424Z,100556.16
2022-08-03T08:28:22.276Z,100546.44
2022-08-03T08:32:57.649Z,100542.25
2022-08-03T08:38:05.705Z,100543.19
2022-08-03T08:43:08.691Z,100535.78
2022-08-03T08:48:12.246Z,100531.97
2022-08-03T08:53:18.343Z,100536.53
2022-08-03T08:58:24.220Z,100538.16
2022-08-03T09:03:30.916Z,100537.84
2022-08-03T09:08:34.983Z,100536.63
2022-08-03T09:13:37.667Z,100531.44
2022-08-03T09:18:41.523Z,100528.16
2022-08-03T09:24:02.256Z,100524.59
2022-08-03T09:29:13.479Z,100517.78
2022-08-03T09:34:18.686Z,100521.38
2022-08-03T09:39:41.540Z,100510.94
2022-08-03T09:44:46.746Z,100512.88
2022-08-03T09:50:01.780Z,100518.53
2022-08-03T09:55:23.697Z,100514.94
2022-08-03T10:00:32.742Z,100509.91
2022-08-03T10:05:35.266Z,100504.91
2022-08-03T10:10:45.740Z,100492.31
2022-08-03T10:16:24.017Z,100496.94
2022-08-03T10:21:16.983Z,100498.84
2022-08-03T10:26:23.547Z,100486.03
2022-08-03T10:31:27.296Z,100476.25
2022-08-03T10:36:34.294Z,100473.81
2022-08-03T10:41:42.457Z,100472.34
2022-08-03T10:46:46.363Z,100481.97
2022-08-03T10:51:52.929Z,100470.72
2022-08-03T10:57:30.437Z,100460.72
2022-08-03T11:03:07.287Z,100459.41
2022-08-03T11:08:30.197Z,100454.97
2022-08-03T11:13:34.428Z,100451.53
2022-08-03T11:18:36.990Z,100461.94
2022-08-03T11:24:03.321Z,100459.91
2022-08-03T11:29:31.204Z,100447.38
2022-08-03T11:34:33.715Z,100444.19
2022-08-03T11:39:40.386Z,100451.72
2022-08-03T11:44:47.481Z,100445.25
2022-08-03T11:49:51.337Z,100450.13
2022-08-03T11:54:57.213Z,100436.16
2022-08-03T12:00:01.394Z,100435.88
2022-08-03T12:05:04.204Z,100426.00
2022-08-03T12:10:08.450Z,100426.19
2022-08-03T12:15:12.706Z,100412.78
2022-08-03T12:20:34.689Z,100409.09
2022-08-03T12:25:40.046Z,100410.69
2022-08-03T12:30:44.645Z,100414.34
2022-08-03T12:35:52.451Z,100408.94
2022-08-03T12:40:58.032Z,100398.53
2022-08-03T12:46:13.620Z,100401.38
2022-08-03T12:51:16.069Z,100388.84
2022-08-03T12:56:19.934Z,100382.69
2022-08-03T13:01:24.540Z,100390.75
2022-08-03T13:06:28.628Z,100373.78
2022-08-03T13:11:55.364Z,100368.69
2022-08-03T13:16:54.897Z,100367.72
2022-08-03T13:22:03.554Z,100362.13
2022-08-03T13:28:01.492Z,100361.41
2022-08-03T13:32:31.333Z,100353.44
2022-08-03T13:37:34.704Z,100354.41
2022-08-03T13:42:38.962Z,100344.97
2022-08-03T13:47:42.911Z,100339.78
2022-08-03T13:52:46.258Z,100340.28
2022-08-03T13:58:04.378Z,100339.00
2022-08-03T14:03:14.663Z,100338.22
2022-08-03T14:08:18.209Z,100334.56
2022-08-03T14:13:20.996Z,100320.22
2022-08-03T14:18:29.291Z,100324.88
2022-08-03T14:23:38.437Z,100325.59
2022-08-03T14:28:41.761Z,100329.81
2022-08-03T14:33:45.798Z,100325.13
2022-08-03T14:38:48.285Z,100318.59
2022-08-03T14:44:01.732Z,100312.91
2022-08-03T14:50:37.685Z,100310.22
2022-08-03T14:54:30.872Z,100303.84
2022-08-03T14:59:55.951Z,100309.69
2022-08-03T15:04:57.653Z,100303.81
2022-08-03T15:10:00.476Z,100295.69
2022-08-03T15:15:05.454Z,100287.28
2022-08-03T15:20:25.451Z,100288.81
2022-08-03T15:26:06.549Z,100281.16
2022-08-03T15:30:56.729Z,100269.28
2022-08-03T15:36:01.004Z,100274.13
2022-08-03T15:41:03.572Z,100270.72
2022-08-03T15:46:28.849Z,100265.59
2022-08-03T15:51:30.520Z,100268.38
2022-08-03T15:56:33.080Z,100268.25
2022-08-03T16:01:35.597Z,100262.34
2022-08-03T16:06:39.429Z,100263.03
2022-08-03T16:11:41.895Z,100263.25
2022-08-03T16:16:44.299Z,100259.41
2022-08-03T16:21:50.068Z,100260.63
2022-08-03T16:26:52.838Z,100259.41
2022-08-03T16:31:55.348Z,100251.53
2022-08-03T16:37:04.827Z,100263.56
2022-08-03T16:42:14.372Z,100265.59
2022-08-03T16:47:22.247Z,100256.09
2022-08-03T16:52:26.763Z,100256.59
2022-08-03T16:57:56.351Z,100254.16
2022-08-03T17:02:52.880Z,100262.44
2022-08-03T17:07:56.970Z,100255.69
2022-08-03T17:12:59.429Z,100260.53
2022-08-03T17:18:05.634Z,100262.50
2022-08-03T17:23:34.711Z,100263.97
2022-08-03T17:28:52.182Z,100271.53
2022-08-03T17:34:04.517Z,100266.28
2022-08-03T17:39:15.408Z,100269.88
2022-08-03T17:44:31.117Z,100270.13
2022-08-03T17:49:39.806Z,100269.53
2022-08-03T18:00:42.627Z,100271.28
2022-08-03T18:06:11.195Z,100278.13
2022-08-03T18:11:15.213Z,100275.88
2022-08-03T18:16:23.345Z,100284.91
2022-08-03T18:21:26.010Z,100285.72
2022-08-03T18:26:31.123Z,100291.59
2022-08-03T18:32:05.334Z,100294.25
2022-08-03T18:37:00.690Z,100291.72
2022-08-03T18:42:08.667Z,100293.75
2022-08-03T18:47:50.473Z,100290.06
2022-08-03T18:53:03.064Z,100292.81
2022-08-03T18:58:17.756Z,100296.91
2022-08-03T19:03:24.847Z,100291.56
2022-08-03T19:08:48.798Z,100301.19
2022-08-03T19:13:57.260Z,100308.19
2022-08-03T19:19:01.919Z,100305.06
2022-08-03T19:24:09.653Z,100303.81
2022-08-03T19:29:16.551Z,100310.03
2022-08-03T19:34:19.524Z,100313.22
2022-08-03T19:39:22.048Z,100314.88
2022-08-03T19:44:32.438Z,100312.22
2022-08-03T19:50:05.977Z,100312.66
2022-08-03T19:55:04.356Z,100319.63
2022-08-03T20:00:12.767Z,100317.78
2022-08-03T20:05:16.849Z,100322.72
2022-08-03T20:10:20.989Z,100324.75
2022-08-03T20:15:31.443Z,100329.19
2022-08-03T20:20:37.179Z,100327.94
2022-08-03T20:31:06.006Z,100326.06
2022-08-03T20:36:11.257Z,100327.66
2022-08-03T20:41:14.446Z,100334.69
2022-08-03T20:46:31.756Z,100334.47
2022-08-03T20:51:50.316Z,100336.13
2022-08-03T20:56:56.407Z,100327.19
2022-08-03T21:02:00.419Z,100318.78
2022-08-03T21:07:16.445Z,100326.50
2022-08-03T21:12:26.848Z,100332.75
2022-08-03T21:12:55.768Z,100274.47
2022-08-03T21:13:14.055Z,100325.94
2022-08-03T21:17:40.990Z,100333.69
2022-08-03T21:22:46.965Z,100332.84
2022-08-03T21:27:52.041Z,100325.66
2022-08-03T21:32:57.882Z,100326.97
2022-08-03T21:38:17.789Z,100330.72
2022-08-03T21:43:20.639Z,100330.03
2022-08-03T21:48:27.102Z,100333.34
2022-08-03T21:54:00.363Z,100327.09
2022-08-03T21:58:56.135Z,100330.75
2022-08-03T22:04:00.378Z,100332.91
2022-08-03T22:09:06.777Z,100332.34
2022-08-03T22:14:09.817Z,100332.22
2022-08-03T22:19:13.676Z,100335.81
2022-08-03T22:24:17.067Z,100327.47
2022-08-03T22:29:20.031Z,100331.84
2022-08-03T22:34:26.408Z,100340.34
2022-08-03T22:39:30.452Z,100328.78
2022-08-03T22:44:33.373Z,100331.59
2022-08-03T22:49:37.979Z,100328.28
2022-08-03T22:54:41.650Z,100325.16
2022-08-03T22:59:47.246Z,100339.38
2022-08-03T23:04:53.798Z,100322.75
2022-08-03T23:09:58.053Z,100330.94
2022-08-03T23:15:02.928Z,100326.72
2022-08-03T23:20:09.092Z,100320.13
2022-08-03T23:25:12.270Z,100328.91
2022-08-03T23:30:14.979Z,100327.16
2022-08-03T23:36:28.144Z,100318.56
2022-08-03T23:41:01.829Z,100318.47
2022-08-03T23:46:05.895Z,100312.94
2022-08-03T23:51:14.144Z,100313.28
2022-08-03T23:56:24.871Z,100315.63
